createdAt,value
2018-08-24T00:00:34.245Z,19.84
2018-08-24T00:01:34.332Z,19.71
2018-08-24T00:02:34.343Z,19.77
2018-08-24T00:03:34.357Z,19.70
2018-08-24T00:04:34.376Z,19.79
2018-08-24T00:05:34.407Z,19.81
2018-08-24T00:06:34.403Z,19.75
2018-08-24T00:07:34.288Z,19.82
2018-08-24T00:08:34.310Z,19.85
2018-08-24T00:09:34.445Z,19.85
2018-08-24T00:10:34.508Z,19.84
2018-08-24T00:11:34.349Z,19.85
2018-08-24T00:12:34.368Z,19.75
2018-08-24T00:13:34.380Z,19.79
2018-08-24T00:14:34.520Z,19.81
2018-08-24T00:15:34.688Z,19.85
2018-08-24T00:16:34.553Z,19.81
2018-08-24T00:17:34.433Z,19.87
2018-08-24T00:18:34.461Z,19.75
2018-08-24T00:19:34.513Z,19.85
2018-08-24T00:20:34.636Z,19.78
2018-08-24T00:21:34.505Z,19.75
2018-08-24T00:22:34.510Z,19.77
2018-08-24T00:23:34.658Z,19.78
2018-08-24T00:24:34.558Z,19.79
2018-08-24T00:25:34.679Z,19.85
2018-08-24T00:26:34.574Z,19.85
2018-08-24T00:27:34.720Z,19.87
2018-08-24T00:28:34.614Z,19.82
2018-08-24T00:29:34.753Z,19.82
2018-08-24T00:30:34.787Z,19.81
2018-08-24T00:31:34.661Z,19.78
2018-08-24T00:32:34.664Z,19.81
2018-08-24T00:33:34.679Z,19.81
2018-08-24T00:34:34.698Z,19.93
2018-08-24T00:35:34.983Z,19.89
2018-08-24T00:36:34.719Z,19.92
2018-08-24T00:37:34.733Z,19.97
2018-08-24T00:38:34.874Z,20.00
2018-08-24T00:39:34.768Z,19.94
2018-08-24T00:40:34.841Z,19.89
2018-08-24T00:41:34.810Z,19.85
2018-08-24T00:42:35.061Z,19.85
2018-08-24T00:43:34.828Z,19.85
2018-08-24T00:44:34.847Z,19.82
2018-08-24T00:45:34.984Z,19.74
2018-08-24T00:46:34.867Z,19.79
2018-08-24T00:47:34.954Z,19.77
2018-08-24T00:48:34.898Z,19.77
2018-08-24T00:49:35.027Z,19.78
2018-08-24T00:50:34.936Z,19.78
2018-08-24T00:51:34.938Z,19.70
2018-08-24T00:52:34.957Z,19.64
2018-08-24T00:53:34.980Z,19.70
2018-08-24T00:54:35.035Z,19.64
2018-08-24T00:55:35.133Z,19.55
2018-08-24T00:56:35.152Z,19.48
2018-08-24T00:57:35.110Z,19.57
2018-08-24T00:58:35.055Z,19.48
2018-08-24T00:59:35.335Z,19.47
2018-08-24T01:00:35.124Z,19.47
2018-08-24T01:01:35.105Z,19.42
2018-08-24T01:02:35.147Z,19.48
2018-08-24T01:03:35.122Z,19.45
2018-08-24T01:04:35.128Z,19.47
2018-08-24T01:05:35.316Z,19.45
2018-08-24T01:06:35.175Z,19.41
2018-08-24T01:07:35.257Z,19.45
2018-08-24T01:08:35.320Z,19.42
2018-08-24T01:09:35.334Z,19.34
2018-08-24T01:10:35.405Z,19.35
2018-08-24T01:11:35.249Z,19.16
2018-08-24T01:12:35.252Z,19.29
2018-08-24T01:13:35.271Z,19.20
2018-08-24T01:14:35.285Z,19.24
2018-08-24T01:15:35.428Z,19.17
2018-08-24T01:16:35.411Z,19.12
2018-08-24T01:17:35.334Z,19.20
2018-08-24T01:18:35.340Z,19.20
2018-08-24T01:19:35.368Z,19.23
2018-08-24T01:20:35.384Z,19.27
2018-08-24T01:21:35.492Z,19.23
2018-08-24T01:22:35.399Z,19.24
2018-08-24T01:23:35.413Z,19.20
2018-08-24T01:24:35.440Z,19.30
2018-08-24T01:25:35.505Z,19.09
2018-08-24T01:26:35.602Z,19.16
2018-08-24T01:27:35.476Z,19.16
2018-08-24T01:28:35.613Z,19.15
2018-08-24T01:29:35.502Z,19.04
2018-08-24T01:30:35.519Z,19.05
2018-08-24T01:31:35.762Z,18.94
2018-08-24T01:32:35.544Z,18.94
2018-08-24T01:33:35.553Z,18.86
2018-08-24T01:34:35.584Z,18.81
2018-08-24T01:35:35.713Z,18.82
2018-08-24T01:36:35.698Z,18.85
2018-08-24T01:37:35.742Z,18.83
2018-08-24T01:38:35.642Z,18.86
2018-08-24T01:39:35.666Z,18.85
2018-08-24T01:40:35.786Z,18.92
2018-08-24T01:41:35.728Z,18.88
2018-08-24T01:42:35.688Z,18.94
2018-08-24T01:43:35.839Z,18.78
2018-08-24T01:44:35.718Z,18.78
2018-08-24T01:45:35.735Z,18.76
2018-08-24T01:46:35.853Z,18.76
2018-08-24T01:47:35.773Z,18.67
2018-08-24T01:48:35.911Z,18.71
2018-08-24T01:49:35.787Z,18.61
2018-08-24T01:50:35.814Z,18.67
2018-08-24T01:51:35.928Z,18.68
2018-08-24T01:52:35.842Z,18.60
2018-08-24T01:53:35.981Z,18.57
2018-08-24T01:54:35.993Z,18.60
2018-08-24T01:55:35.892Z,18.53
2018-08-24T01:56:35.985Z,18.52
2018-08-24T01:57:35.917Z,18.53
2018-08-24T01:58:35.923Z,18.48
2018-08-24T01:59:35.937Z,18.39
2018-08-24T02:00:35.955Z,18.41
2018-08-24T02:01:36.143Z,18.41
2018-08-24T02:02:36.103Z,18.36
2018-08-24T02:03:35.997Z,18.36
2018-08-24T02:04:36.005Z,18.34
2018-08-24T02:05:36.029Z,18.31
2018-08-24T02:06:36.262Z,18.33
2018-08-24T02:07:36.179Z,18.34
2018-08-24T02:08:36.187Z,18.23
2018-08-24T02:09:36.080Z,18.24
2018-08-24T02:10:36.221Z,18.26
2018-08-24T02:11:36.281Z,18.16
2018-08-24T02:12:36.130Z,18.21
2018-08-24T02:13:36.260Z,18.26
2018-08-24T02:14:36.172Z,18.21
2018-08-24T02:15:36.262Z,18.18
2018-08-24T02:16:36.307Z,18.16
2018-08-24T02:17:36.191Z,18.05
2018-08-24T02:18:36.333Z,18.11
2018-08-24T02:19:36.346Z,17.97
2018-08-24T02:20:36.457Z,17.86
2018-08-24T02:21:36.379Z,17.86
2018-08-24T02:22:36.264Z,17.87
2018-08-24T02:23:36.286Z,17.73
2018-08-24T02:24:36.286Z,17.78
2018-08-24T02:25:36.475Z,17.76
2018-08-24T02:26:36.316Z,17.80
2018-08-24T02:27:36.331Z,17.72
2018-08-24T02:28:36.471Z,17.76
2018-08-24T02:29:36.486Z,17.79
2018-08-24T02:30:36.481Z,17.71
2018-08-24T02:31:36.393Z,17.65
2018-08-24T02:32:36.399Z,17.68
2018-08-24T02:33:36.536Z,17.63
2018-08-24T02:34:36.556Z,17.65
2018-08-24T02:35:36.671Z,17.63
2018-08-24T02:36:36.461Z,17.66
2018-08-24T02:37:36.470Z,17.59
2018-08-24T02:38:36.606Z,17.68
2018-08-24T02:39:36.620Z,17.66
2018-08-24T02:40:36.669Z,17.66
2018-08-24T02:41:36.530Z,17.73
2018-08-24T02:42:36.537Z,17.78
2018-08-24T02:43:36.677Z,17.76
2018-08-24T02:44:36.696Z,17.72
2018-08-24T02:45:36.757Z,17.73
2018-08-24T02:46:36.868Z,17.71
2018-08-24T02:47:36.599Z,17.73
2018-08-24T02:48:36.625Z,17.80
2018-08-24T02:49:36.626Z,17.73
2018-08-24T02:50:36.660Z,17.73
2018-08-24T02:51:36.884Z,17.76
2018-08-24T02:52:36.665Z,17.80
2018-08-24T02:53:36.713Z,17.78
2018-08-24T02:54:36.836Z,17.80
2018-08-24T02:55:36.713Z,17.82
2018-08-24T02:56:36.885Z,17.88
2018-08-24T02:57:36.748Z,17.73
2018-08-24T02:58:36.758Z,17.76
2018-08-24T02:59:36.780Z,17.73
2018-08-24T03:00:36.792Z,17.68
2018-08-24T03:01:36.902Z,17.59
2018-08-24T03:02:36.802Z,17.68
2018-08-24T03:03:36.820Z,17.46
2018-08-24T03:04:36.848Z,17.52
2018-08-24T03:05:37.088Z,17.46
2018-08-24T03:06:37.094Z,17.68
2018-08-24T03:07:36.886Z,17.71
2018-08-24T03:08:36.892Z,17.57
2018-08-24T03:09:37.032Z,17.52
2018-08-24T03:10:37.049Z,17.56
2018-08-24T03:11:37.037Z,17.44
2018-08-24T03:12:36.957Z,17.56
2018-08-24T03:13:37.087Z,17.46
2018-08-24T03:14:37.107Z,17.42
2018-08-24T03:15:37.117Z,17.44
2018-08-24T03:16:37.279Z,17.31
2018-08-24T03:17:37.022Z,17.37
2018-08-24T03:18:37.043Z,17.20
2018-08-24T03:19:37.174Z,17.24
2018-08-24T03:20:37.185Z,17.17
2018-08-24T03:21:37.196Z,17.22
2018-08-24T03:22:37.185Z,17.20
2018-08-24T03:23:37.106Z,17.16
2018-08-24T03:24:37.111Z,17.14
2018-08-24T03:25:37.249Z,17.20
2018-08-24T03:26:37.141Z,17.09
2018-08-24T03:27:37.434Z,17.01
2018-08-24T03:28:37.293Z,17.04
2018-08-24T03:29:37.184Z,17.05
2018-08-24T03:30:37.201Z,16.99
2018-08-24T03:31:37.332Z,16.98
2018-08-24T03:32:37.284Z,16.99
2018-08-24T03:33:37.359Z,17.05
2018-08-24T03:34:37.376Z,17.05
2018-08-24T03:35:37.303Z,17.02
2018-08-24T03:36:37.273Z,17.09
2018-08-24T03:37:37.428Z,17.07
2018-08-24T03:38:37.304Z,17.09
2018-08-24T03:39:37.327Z,17.09
2018-08-24T03:40:37.454Z,17.04
2018-08-24T03:41:37.339Z,17.10
2018-08-24T03:42:37.535Z,17.10
2018-08-24T03:43:37.462Z,17.09
2018-08-24T03:44:37.387Z,17.01
2018-08-24T03:45:37.524Z,17.07
2018-08-24T03:46:37.409Z,17.01
2018-08-24T03:47:37.545Z,17.02
2018-08-24T03:48:37.537Z,17.04
2018-08-24T03:49:37.448Z,17.04
2018-08-24T03:50:37.467Z,17.02
2018-08-24T03:51:37.495Z,16.99
2018-08-24T03:52:37.500Z,17.09
2018-08-24T03:53:37.609Z,17.04
2018-08-24T03:54:37.648Z,17.05
2018-08-24T03:55:37.661Z,17.19
2018-08-24T03:56:37.672Z,17.24
2018-08-24T03:57:37.561Z,17.12
2018-08-24T03:58:37.798Z,17.24
2018-08-24T03:59:37.588Z,17.38
2018-08-24T04:00:37.726Z,17.28
2018-08-24T04:01:37.610Z,17.44
2018-08-24T04:02:37.746Z,17.41
2018-08-24T04:03:37.908Z,17.32
2018-08-24T04:04:37.662Z,17.39
2018-08-24T04:05:37.668Z,17.38
2018-08-24T04:06:37.689Z,17.44
2018-08-24T04:07:37.682Z,17.39
2018-08-24T04:08:37.984Z,17.34
2018-08-24T04:09:37.847Z,17.44
2018-08-24T04:10:37.724Z,17.37
2018-08-24T04:11:37.875Z,17.47
2018-08-24T04:12:37.921Z,17.47
2018-08-24T04:13:38.095Z,17.42
2018-08-24T04:14:37.911Z,17.27
2018-08-24T04:15:37.807Z,17.37
2018-08-24T04:16:37.845Z,17.27
2018-08-24T04:17:37.828Z,17.12
2018-08-24T04:18:37.886Z,17.20
2018-08-24T04:19:37.996Z,17.20
2018-08-24T04:20:38.077Z,17.16
2018-08-24T04:21:37.882Z,17.13
2018-08-24T04:22:37.905Z,17.10
2018-08-24T04:23:38.028Z,17.12
2018-08-24T04:24:38.044Z,17.07
2018-08-24T04:25:38.078Z,17.24
2018-08-24T04:26:38.123Z,17.14
2018-08-24T04:27:38.087Z,17.09
2018-08-24T04:28:38.098Z,17.10
2018-08-24T04:29:38.007Z,17.04
2018-08-24T04:30:38.119Z,17.13
2018-08-24T04:31:38.073Z,17.13
2018-08-24T04:32:38.149Z,17.14
2018-08-24T04:33:38.159Z,17.19
2018-08-24T04:34:38.056Z,17.16
2018-08-24T04:35:38.064Z,17.22
2018-08-24T04:36:38.128Z,17.14
2018-08-24T04:37:38.090Z,17.22
2018-08-24T04:38:38.104Z,17.14
2018-08-24T04:39:38.313Z,17.12
2018-08-24T04:40:38.144Z,17.10
2018-08-24T04:41:38.181Z,17.04
2018-08-24T04:42:38.166Z,17.01
2018-08-24T04:43:38.295Z,17.13
2018-08-24T04:44:38.427Z,16.99
2018-08-24T04:45:38.277Z,17.01
2018-08-24T04:46:38.215Z,17.05
2018-08-24T04:47:38.220Z,17.07
2018-08-24T04:48:38.253Z,17.02
2018-08-24T04:49:38.528Z,16.94
2018-08-24T04:50:38.279Z,17.07
2018-08-24T04:51:38.279Z,17.07
2018-08-24T04:52:38.413Z,17.02
2018-08-24T04:53:38.432Z,17.04
2018-08-24T04:54:38.467Z,17.04
2018-08-24T04:55:38.457Z,17.07
2018-08-24T04:56:38.358Z,17.07
2018-08-24T04:57:38.392Z,17.07
2018-08-24T04:58:38.501Z,17.04
2018-08-24T04:59:38.660Z,17.01
2018-08-24T05:00:38.397Z,17.04
2018-08-24T05:01:38.407Z,17.04
2018-08-24T05:02:38.427Z,17.17
2018-08-24T05:03:38.430Z,17.27
2018-08-24T05:04:38.508Z,17.19
2018-08-24T05:05:38.668Z,17.27
2018-08-24T05:06:38.477Z,17.30
2018-08-24T05:07:38.500Z,17.30
2018-08-24T05:08:38.505Z,17.22
2018-08-24T05:09:38.743Z,17.30
2018-08-24T05:10:38.550Z,17.20
2018-08-24T05:11:38.547Z,17.27
2018-08-24T05:12:38.683Z,17.19
2018-08-24T05:13:38.568Z,17.22
2018-08-24T05:14:38.721Z,17.22
2018-08-24T05:15:38.597Z,17.32
2018-08-24T05:16:38.732Z,17.27
2018-08-24T05:17:38.746Z,17.28
2018-08-24T05:18:38.639Z,17.31
2018-08-24T05:19:38.802Z,17.24
2018-08-24T05:20:38.786Z,17.19
2018-08-24T05:21:38.675Z,17.17
2018-08-24T05:22:38.681Z,17.17
2018-08-24T05:23:38.695Z,17.17
2018-08-24T05:24:38.874Z,17.19
2018-08-24T05:25:38.721Z,17.19
2018-08-24T05:26:38.741Z,17.20
2018-08-24T05:27:38.771Z,17.17
2018-08-24T05:28:38.765Z,17.22
2018-08-24T05:29:38.882Z,17.16
2018-08-24T05:30:38.920Z,17.17
2018-08-24T05:31:38.803Z,17.14
2018-08-24T05:32:38.829Z,17.13
2018-08-24T05:33:38.956Z,17.05
2018-08-24T05:34:39.023Z,17.04
2018-08-24T05:35:38.903Z,16.98
2018-08-24T05:36:38.875Z,17.05
2018-08-24T05:37:38.884Z,16.87
2018-08-24T05:38:39.039Z,16.89
2018-08-24T05:39:38.910Z,16.84
2018-08-24T05:40:38.926Z,16.94
2018-08-24T05:41:38.945Z,16.80
2018-08-24T05:42:39.082Z,16.80
2018-08-24T05:43:39.125Z,16.74
2018-08-24T05:44:39.024Z,16.73
2018-08-24T05:45:38.995Z,16.69
2018-08-24T05:46:39.001Z,16.66
2018-08-24T05:47:39.053Z,16.65
2018-08-24T05:48:39.083Z,16.59
2018-08-24T05:49:39.136Z,16.66
2018-08-24T05:50:39.079Z,16.61
2018-08-24T05:51:39.073Z,16.57
2018-08-24T05:52:39.208Z,16.50
2018-08-24T05:53:39.092Z,16.49
2018-08-24T05:54:39.155Z,16.51
2018-08-24T05:55:39.387Z,16.50
2018-08-24T05:56:39.133Z,16.55
2018-08-24T05:57:39.148Z,16.54
2018-08-24T05:58:39.291Z,16.49
2018-08-24T05:59:39.295Z,16.51
2018-08-24T06:00:39.352Z,16.47
2018-08-24T06:01:39.245Z,16.49
2018-08-24T06:02:39.341Z,16.57
2018-08-24T06:03:39.354Z,16.57
2018-08-24T06:04:39.244Z,16.58
2018-08-24T06:05:39.541Z,16.55
2018-08-24T06:06:39.262Z,16.47
2018-08-24T06:07:39.278Z,16.58
2018-08-24T06:08:39.416Z,16.59
2018-08-24T06:09:39.429Z,16.66
2018-08-24T06:10:39.492Z,16.44
2018-08-24T06:11:39.456Z,16.55
2018-08-24T06:12:39.468Z,16.61
2018-08-24T06:13:39.478Z,16.59
2018-08-24T06:14:39.499Z,16.59
2018-08-24T06:15:39.479Z,16.64
2018-08-24T06:16:39.434Z,16.61
2018-08-24T06:17:39.423Z,16.65
2018-08-24T06:18:39.541Z,16.57
2018-08-24T06:19:39.438Z,16.62
2018-08-24T06:20:39.724Z,16.62
2018-08-24T06:21:39.456Z,16.69
2018-08-24T06:22:39.525Z,16.64
2018-08-24T06:23:39.489Z,16.74
2018-08-24T06:24:39.621Z,16.68
2018-08-24T06:25:39.624Z,16.68
2018-08-24T06:26:39.647Z,16.68
2018-08-24T06:27:39.668Z,16.72
2018-08-24T06:28:39.673Z,16.66
2018-08-24T06:29:39.563Z,16.64
2018-08-24T06:30:39.613Z,16.64
2018-08-24T06:31:39.583Z,16.51
2018-08-24T06:32:39.702Z,16.59
2018-08-24T06:33:39.610Z,16.58
2018-08-24T06:34:39.643Z,16.54
2018-08-24T06:35:39.652Z,16.51
2018-08-24T06:36:39.665Z,16.55
2018-08-24T06:37:39.888Z,16.55
2018-08-24T06:38:39.717Z,16.55
2018-08-24T06:39:39.816Z,16.64
2018-08-24T06:40:39.832Z,16.62
2018-08-24T06:41:39.891Z,16.74
2018-08-24T06:42:40.009Z,16.72
2018-08-24T06:43:39.761Z,16.65
2018-08-24T06:44:39.756Z,16.66
2018-08-24T06:45:39.766Z,16.69
2018-08-24T06:46:39.907Z,16.61
2018-08-24T06:47:39.933Z,16.64
2018-08-24T06:48:39.936Z,16.68
2018-08-24T06:49:39.827Z,16.62
2018-08-24T06:50:39.958Z,16.62
2018-08-24T06:51:39.998Z,16.66
2018-08-24T06:52:39.987Z,16.66
2018-08-24T06:53:40.081Z,16.69
2018-08-24T06:54:40.008Z,16.62
2018-08-24T06:55:40.027Z,16.66
2018-08-24T06:56:40.193Z,16.69
2018-08-24T06:57:39.929Z,16.66
2018-08-24T06:58:40.062Z,16.59
2018-08-24T06:59:39.980Z,16.54
2018-08-24T07:00:40.091Z,16.55
2018-08-24T07:01:40.303Z,16.41
2018-08-24T07:02:40.115Z,16.46
2018-08-24T07:03:40.006Z,16.41
2018-08-24T07:04:40.012Z,16.44
2018-08-24T07:05:40.073Z,16.36
2018-08-24T07:06:40.093Z,16.31
2018-08-24T07:07:40.182Z,16.24
2018-08-24T07:08:40.158Z,16.26
2018-08-24T07:09:40.085Z,16.28
2018-08-24T07:10:40.215Z,16.31
2018-08-24T07:11:40.103Z,16.22
2018-08-24T07:12:40.122Z,16.29
2018-08-24T07:13:40.332Z,16.32
2018-08-24T07:14:40.149Z,16.29
2018-08-24T07:15:40.165Z,16.37
2018-08-24T07:16:40.298Z,16.46
2018-08-24T07:17:40.190Z,16.49
2018-08-24T07:18:40.397Z,16.55
2018-08-24T07:19:40.220Z,16.49
2018-08-24T07:20:40.223Z,16.54
2018-08-24T07:21:40.357Z,16.58
2018-08-24T07:22:40.248Z,16.64
2018-08-24T07:23:40.482Z,16.72
2018-08-24T07:24:40.315Z,16.73
2018-08-24T07:25:40.318Z,16.73
2018-08-24T07:26:40.296Z,16.89
2018-08-24T07:27:40.432Z,16.76
2018-08-24T07:28:40.503Z,16.82
2018-08-24T07:29:40.463Z,16.80
2018-08-24T07:30:40.471Z,16.83
2018-08-24T07:31:40.361Z,16.89
2018-08-24T07:32:40.376Z,16.91
2018-08-24T07:33:40.660Z,16.94
2018-08-24T07:34:40.394Z,16.80
2018-08-24T07:35:40.412Z,16.87
2018-08-24T07:36:40.553Z,16.87
2018-08-24T07:37:40.449Z,16.91
2018-08-24T07:38:40.561Z,16.89
2018-08-24T07:39:40.468Z,16.82
2018-08-24T07:40:40.509Z,16.80
2018-08-24T07:41:40.547Z,16.82
2018-08-24T07:42:40.623Z,16.73
2018-08-24T07:43:40.792Z,16.73
2018-08-24T07:44:40.540Z,16.62
2018-08-24T07:45:40.546Z,16.72
2018-08-24T07:46:40.682Z,16.65
2018-08-24T07:47:40.572Z,16.59
2018-08-24T07:48:40.682Z,16.58
2018-08-24T07:49:40.618Z,16.59
2018-08-24T07:50:40.793Z,16.64
2018-08-24T07:51:40.626Z,16.61
2018-08-24T07:52:40.640Z,16.59
2018-08-24T07:53:40.746Z,16.59
2018-08-24T07:54:40.646Z,16.59
2018-08-24T07:55:40.663Z,16.64
2018-08-24T07:56:40.676Z,16.65
2018-08-24T07:57:40.703Z,16.66
2018-08-24T07:58:40.988Z,16.62
2018-08-24T07:59:40.722Z,16.72
2018-08-24T08:00:40.740Z,16.72
2018-08-24T08:01:40.754Z,16.76
2018-08-24T08:02:40.885Z,16.62
2018-08-24T08:03:40.925Z,16.65
2018-08-24T08:04:40.790Z,16.57
2018-08-24T08:05:40.796Z,16.47
2018-08-24T08:06:40.845Z,16.54
2018-08-24T08:07:40.826Z,16.54
2018-08-24T08:08:40.877Z,16.49
2018-08-24T08:09:40.980Z,16.51
2018-08-24T08:10:41.092Z,16.43
2018-08-24T08:11:40.879Z,16.40
2018-08-24T08:12:41.117Z,16.41
2018-08-24T08:13:40.899Z,16.34
2018-08-24T08:14:40.909Z,16.29
2018-08-24T08:15:41.149Z,16.24
2018-08-24T08:16:40.945Z,16.25
2018-08-24T08:17:41.081Z,16.21
2018-08-24T08:18:41.084Z,16.18
2018-08-24T08:19:40.978Z,16.09
2018-08-24T08:20:41.135Z,16.10
2018-08-24T08:21:41.023Z,16.28
2018-08-24T08:22:41.023Z,16.26
2018-08-24T08:23:41.029Z,16.29
2018-08-24T08:24:41.044Z,16.37
2018-08-24T08:25:41.254Z,16.44
2018-08-24T08:26:41.193Z,16.46
2018-08-24T08:27:41.083Z,16.36
2018-08-24T08:28:41.106Z,16.40
2018-08-24T08:29:41.107Z,16.26
2018-08-24T08:30:41.170Z,16.28
2018-08-24T08:31:41.254Z,16.37
2018-08-24T08:32:41.269Z,16.29
2018-08-24T08:33:41.160Z,16.22
2018-08-24T08:34:41.296Z,16.12
2018-08-24T08:35:41.359Z,16.12
2018-08-24T08:36:41.193Z,16.05
2018-08-24T08:37:41.207Z,16.05
2018-08-24T08:38:41.371Z,16.05
2018-08-24T08:39:41.232Z,15.94
2018-08-24T08:40:41.376Z,15.98
2018-08-24T08:41:41.258Z,15.92
2018-08-24T08:42:41.400Z,15.90
2018-08-24T08:43:41.512Z,15.88
2018-08-24T08:44:41.424Z,15.90
2018-08-24T08:45:41.301Z,15.88
2018-08-24T08:46:41.451Z,15.90
2018-08-24T08:47:41.335Z,15.88
2018-08-24T08:48:41.525Z,15.98
2018-08-24T08:49:41.361Z,15.99
2018-08-24T08:50:41.547Z,15.99
2018-08-24T08:51:41.385Z,15.96
2018-08-24T08:52:41.489Z,16.06
2018-08-24T08:53:41.536Z,15.99
2018-08-24T08:54:41.548Z,16.08
2018-08-24T08:55:41.441Z,16.21
2018-08-24T08:56:41.453Z,16.26
2018-08-24T08:57:41.560Z,16.31
2018-08-24T08:58:41.491Z,16.26
2018-08-24T08:59:41.540Z,16.36
2018-08-24T09:00:41.626Z,16.40
2018-08-24T09:01:41.527Z,16.41
2018-08-24T09:02:41.752Z,16.46
2018-08-24T09:03:41.532Z,16.49
2018-08-24T09:04:41.679Z,16.37
2018-08-24T09:05:41.563Z,16.32
2018-08-24T09:06:41.579Z,16.39
2018-08-24T09:07:41.686Z,16.37
2018-08-24T09:08:41.726Z,16.29
2018-08-24T09:09:41.620Z,16.34
2018-08-24T09:10:41.752Z,16.21
2018-08-24T09:11:41.645Z,16.24
2018-08-24T09:12:41.872Z,16.17
2018-08-24T09:13:41.678Z,16.25
2018-08-24T09:14:41.706Z,16.22
2018-08-24T09:15:41.814Z,16.10
2018-08-24T09:16:41.711Z,16.18
2018-08-24T09:17:41.938Z,16.09
2018-08-24T09:18:41.732Z,16.18
2018-08-24T09:19:41.868Z,16.17
2018-08-24T09:20:41.760Z,16.17
2018-08-24T09:21:41.892Z,16.21
2018-08-24T09:22:42.005Z,16.24
2018-08-24T09:23:41.963Z,16.22
2018-08-24T09:24:41.924Z,16.29
2018-08-24T09:25:41.924Z,16.34
2018-08-24T09:26:41.829Z,16.39
2018-08-24T09:27:42.065Z,16.34
2018-08-24T09:28:41.851Z,16.41
2018-08-24T09:29:41.993Z,16.51
2018-08-24T09:30:41.887Z,16.47
2018-08-24T09:31:41.896Z,16.58
2018-08-24T09:32:42.152Z,16.55
2018-08-24T09:33:41.954Z,16.55
2018-08-24T09:34:41.933Z,16.47
2018-08-24T09:35:41.943Z,16.57
2018-08-24T09:36:42.084Z,16.51
2018-08-24T09:37:42.192Z,16.49
2018-08-24T09:38:41.980Z,16.51
2018-08-24T09:39:42.120Z,16.43
2018-08-24T09:40:42.004Z,16.59
2018-08-24T09:41:42.141Z,16.54
2018-08-24T09:43:42.096Z,16.66
2018-08-24T09:44:42.182Z,16.72
2018-08-24T09:45:42.069Z,16.82
2018-08-24T09:46:42.085Z,16.87
2018-08-24T09:47:42.317Z,16.99
2018-08-24T09:48:42.108Z,17.01
2018-08-24T09:49:42.147Z,17.09
2018-08-24T09:50:42.258Z,17.01
2018-08-24T09:51:42.147Z,16.98
2018-08-24T09:52:42.254Z,16.98
2018-08-24T09:53:42.188Z,16.94
2018-08-24T09:54:42.316Z,17.05
2018-08-24T09:55:42.197Z,17.17
2018-08-24T09:56:42.276Z,17.28
2018-08-24T09:57:42.288Z,17.35
2018-08-24T09:58:42.370Z,17.49
2018-08-24T09:59:42.311Z,17.59
2018-08-24T10:00:42.256Z,17.68
2018-08-24T10:01:42.304Z,17.66
2018-08-24T10:02:42.364Z,17.73
2018-08-24T10:03:42.317Z,17.84
2018-08-24T10:04:42.431Z,18.05
2018-08-24T10:05:42.334Z,18.26
2018-08-24T10:06:42.373Z,18.46
2018-08-24T10:07:42.374Z,18.58
2018-08-24T10:08:42.504Z,18.78
2018-08-24T10:09:42.486Z,18.92
2018-08-24T10:10:42.406Z,19.19
2018-08-24T10:11:42.425Z,19.35
2018-08-24T10:12:42.567Z,19.62
2018-08-24T10:13:42.581Z,19.81
2018-08-24T10:14:42.767Z,19.96
2018-08-24T10:15:42.484Z,20.15
2018-08-24T10:16:42.513Z,20.44
2018-08-24T10:17:42.514Z,20.66
2018-08-24T10:18:42.540Z,20.73
2018-08-24T10:19:42.867Z,20.88
2018-08-24T10:20:42.687Z,21.07
2018-08-24T10:21:42.615Z,21.28
2018-08-24T10:22:42.590Z,21.50
2018-08-24T10:23:42.625Z,21.54
2018-08-24T10:24:43.102Z,21.62
2018-08-24T10:25:42.681Z,21.62
2018-08-24T10:26:42.787Z,21.53
2018-08-24T10:27:42.799Z,21.69
2018-08-24T10:28:42.690Z,21.75
2018-08-24T10:29:43.044Z,21.83
2018-08-24T10:30:42.726Z,21.78
2018-08-24T10:31:42.871Z,21.85
2018-08-24T10:32:42.770Z,22.01
2018-08-24T10:33:42.980Z,22.16
2018-08-24T10:34:42.914Z,22.43
2018-08-24T10:35:42.815Z,22.58
2018-08-24T10:36:42.842Z,22.84
2018-08-24T10:37:42.969Z,22.93
2018-08-24T10:38:43.057Z,23.06
2018-08-24T10:39:43.008Z,23.39
2018-08-24T10:40:42.927Z,23.52
2018-08-24T10:41:42.918Z,23.66
2018-08-24T10:42:43.054Z,23.91
2018-08-24T10:43:42.947Z,24.19
2018-08-24T10:44:42.980Z,24.32
2018-08-24T10:45:42.991Z,24.66
2018-08-24T10:46:43.021Z,24.99
2018-08-24T10:47:43.247Z,25.19
2018-08-24T10:48:43.049Z,25.39
2018-08-24T10:49:43.208Z,25.56
2018-08-24T10:50:43.208Z,25.63
2018-08-24T10:51:43.231Z,25.80
2018-08-24T10:52:43.339Z,25.99
2018-08-24T10:53:43.141Z,26.11
2018-08-24T10:54:43.210Z,26.34
2018-08-24T10:55:43.234Z,26.55
2018-08-24T10:56:43.323Z,26.82
2018-08-24T10:57:43.311Z,27.01
2018-08-24T10:58:43.235Z,27.28
2018-08-24T10:59:43.256Z,27.33
2018-08-24T11:00:43.392Z,27.48
2018-08-24T11:01:43.287Z,27.64
2018-08-24T11:02:43.421Z,27.79
2018-08-24T11:03:43.468Z,27.86
2018-08-24T11:04:43.356Z,28.13
2018-08-24T11:05:43.371Z,28.28
2018-08-24T11:06:43.385Z,28.30
2018-08-24T11:07:43.722Z,28.23
2018-08-24T11:08:43.446Z,28.20
2018-08-24T11:09:43.575Z,28.27
2018-08-24T11:10:43.464Z,28.35
2018-08-24T11:11:43.508Z,28.34
2018-08-24T11:12:43.609Z,28.28
2018-08-24T11:13:43.526Z,28.30
2018-08-24T11:14:43.557Z,28.34
2018-08-24T11:15:43.560Z,28.45
2018-08-24T11:16:43.647Z,28.47
2018-08-24T11:17:43.674Z,28.57
2018-08-24T11:18:43.757Z,28.56
2018-08-24T11:19:43.772Z,28.59
2018-08-24T11:20:43.792Z,28.60
2018-08-24T11:21:43.686Z,28.71
2018-08-24T11:22:43.933Z,28.71
2018-08-24T11:23:43.743Z,28.77
2018-08-24T11:24:43.877Z,28.68
2018-08-24T11:25:43.772Z,28.68
2018-08-24T11:26:43.922Z,28.53
2018-08-24T11:27:44.137Z,28.47
2018-08-24T11:28:43.923Z,28.43
2018-08-24T11:29:43.867Z,28.45
2018-08-24T11:30:44.000Z,28.45
2018-08-24T11:31:44.023Z,28.45
2018-08-24T11:32:44.190Z,28.23
2018-08-24T11:33:43.937Z,28.19
2018-08-24T11:34:43.945Z,28.09
2018-08-24T11:35:44.031Z,27.95
2018-08-24T11:36:44.125Z,27.85
2018-08-24T11:37:44.177Z,27.91
2018-08-24T11:38:44.166Z,27.93
2018-08-24T11:39:44.082Z,27.82
2018-08-24T11:40:44.123Z,27.90
2018-08-24T11:41:44.186Z,27.83
2018-08-24T11:42:44.228Z,27.79
2018-08-24T11:43:44.138Z,27.76
2018-08-24T11:44:44.286Z,27.72
2018-08-24T11:45:44.306Z,27.73
2018-08-24T11:46:44.201Z,27.71
2018-08-24T11:47:44.517Z,27.63
2018-08-24T11:48:44.235Z,27.61
2018-08-24T11:49:44.265Z,27.66
2018-08-24T11:50:44.406Z,27.66
2018-08-24T11:51:44.312Z,27.63
2018-08-24T11:52:44.423Z,27.60
2018-08-24T11:53:44.345Z,27.64
2018-08-24T11:54:44.371Z,27.58
2018-08-24T11:55:44.390Z,27.50
2018-08-24T11:56:44.456Z,27.43
2018-08-24T11:57:44.525Z,27.41
2018-08-24T11:58:44.478Z,27.29
2018-08-24T11:59:44.483Z,27.28
2018-08-24T12:00:44.482Z,27.30
2018-08-24T12:01:44.505Z,27.40
2018-08-24T12:02:44.578Z,27.34
2018-08-24T12:03:44.560Z,27.35
2018-08-24T12:04:44.688Z,27.37
2018-08-24T12:05:44.572Z,27.41
2018-08-24T12:06:44.723Z,27.20
2018-08-24T12:07:44.751Z,27.18
2018-08-24T12:08:44.646Z,27.05
2018-08-24T12:09:44.785Z,27.01
2018-08-24T12:10:44.691Z,26.85
2018-08-24T12:11:44.702Z,26.68
2018-08-24T12:12:44.862Z,26.68
2018-08-24T12:13:44.732Z,26.63
2018-08-24T12:14:44.756Z,26.48
2018-08-24T12:15:44.770Z,26.51
2018-08-24T12:16:44.835Z,26.39
2018-08-24T12:17:44.856Z,26.44
2018-08-24T12:18:44.900Z,26.41
2018-08-24T12:19:44.971Z,26.39
2018-08-24T12:20:45.041Z,26.39
2018-08-24T12:21:44.974Z,26.29
2018-08-24T12:22:45.015Z,26.26
2018-08-24T12:23:44.930Z,26.23
2018-08-24T12:24:44.945Z,26.30
2018-08-24T12:25:44.971Z,26.31
2018-08-24T12:26:44.983Z,26.37
2018-08-24T12:27:45.234Z,26.48
2018-08-24T12:28:45.147Z,26.48
2018-08-24T12:29:45.032Z,26.55
2018-08-24T12:30:45.080Z,26.67
2018-08-24T12:31:45.078Z,26.61
2018-08-24T12:32:45.308Z,26.52
2018-08-24T12:33:45.122Z,26.53
2018-08-24T12:34:45.182Z,26.66
2018-08-24T12:35:45.165Z,26.67
2018-08-24T12:36:45.173Z,26.85
2018-08-24T12:37:45.468Z,27.00
2018-08-24T12:38:45.541Z,26.92
2018-08-24T12:39:45.357Z,27.04
2018-08-24T12:40:45.294Z,27.08
2018-08-24T12:41:45.271Z,27.05
2018-08-24T12:42:45.279Z,27.10
2018-08-24T12:43:45.436Z,27.16
2018-08-24T12:44:45.335Z,27.15
2018-08-24T12:45:45.341Z,27.07
2018-08-24T12:46:45.367Z,27.05
2018-08-24T12:47:45.506Z,27.07
2018-08-24T12:48:45.549Z,27.13
2018-08-24T12:49:45.543Z,27.28
2018-08-24T12:50:45.564Z,27.30
2018-08-24T12:51:45.455Z,27.35
2018-08-24T12:52:45.473Z,27.47
2018-08-24T12:53:45.820Z,27.53